Time;durP1;ratioP1;P1;durP2;ratioP2;P2;SDS_P1;SDS_P2;PMS_P1;PMS_P2;Temp;Humidity;BMP_temperature;BMP_pressure;BME280_temperature;BME280_humidity;BME280_pressure;Samples;Min_cycle;Max_cycle;Signal;HPM_P1;HPM_P2
2022/12/03 00:01:48;;;;;;;10.50;6.50;;;;;;;;;;5089123;28;20452;-68
2022/12/03 00:04:15;;;;;;;20.20;7.97;;;;;;;;;;5089537;28;20460;-69
2022/12/03 00:06:42;;;;;;;10.97;5.63;;;;;;;;;;5091510;28;20448;-69
2022/12/03 00:09:09;;;;;;;15.10;7.50;;;;;;;;;;5085887;28;20954;-69
2022/12/03 00:11:36;;;;;;;13.90;7.63;;;;;;;;;;5075727;28;20446;-68
2022/12/03 00:14:05;;;;;;;13.47;7.87;;;;;;;;;;5083683;28;20808;-69
2022/12/03 00:16:32;;;;;;;14.33;7.17;;;;;;;;;;5083863;28;20450;-69
2022/12/03 00:18:59;;;;;;;13.10;6.27;;;;;;;;;;5089812;28;20540;-69
2022/12/03 00:21:26;;;;;;;12.93;8.00;;;;;;;;;;5090425;28;20453;-69
2022/12/03 00:23:54;;;;;;;11.37;6.37;;;;;;;;;;5083284;28;20458;-69
2022/12/03 00:26:21;;;;;;;13.43;9.17;;;;;;;;;;5084385;28;20448;-68
2022/12/03 00:28:48;;;;;;;9.50;6.10;;;;;;;;;;5089780;28;20494;-69
2022/12/03 00:31:16;;;;;;;10.53;6.03;;;;;;;;;;5090836;28;20450;-68
2022/12/03 00:33:44;;;;;;;14.17;7.33;;;;;;;;;;5082700;28;20462;-67
2022/12/03 00:36:11;;;;;;;11.10;6.60;;;;;;;;;;5084194;28;20922;-68
2022/12/03 00:38:38;;;;;;;21.23;8.53;;;;;;;;;;5090421;28;20460;-68
2022/12/03 00:41:05;;;;;;;9.90;6.40;;;;;;;;;;5089496;28;21328;-69
2022/12/03 00:43:32;;;;;;;10.93;7.33;;;;;;;;;;5081276;28;20945;-68
2022/12/03 00:45:59;;;;;;;13.83;5.63;;;;;;;;;;5084927;28;20446;-68
2022/12/03 00:48:28;;;;;;;7.90;5.70;;;;;;;;;;5090016;28;20478;-68
2022/12/03 00:50:55;;;;;;;13.20;6.60;;;;;;;;;;5086825;28;20443;-68
2022/12/03 00:53:22;;;;;;;10.53;6.90;;;;;;;;;;5071833;28;20450;-68
2022/12/03 00:55:50;;;;;;;12.40;7.20;;;;;;;;;;5085298;28;20582;-68
2022/12/03 00:58:17;;;;;;;14.20;6.83;;;;;;;;;;5090148;28;20457;-68
2022/12/03 01:00:44;;;;;;;9.50;6.30;;;;;;;;;;5089574;28;20464;-67
2022/12/03 01:03:11;;;;;;;13.30;6.20;;;;;;;;;;5081287;28;20449;-68
2022/12/03 01:05:40;;;;;;;15.00;6.43;;;;;;;;;;5086369;28;20788;-68
2022/12/03 01:08:07;;;;;;;12.10;5.90;;;;;;;;;;5089789;28;20451;-68
2022/12/03 01:10:34;;;;;;;10.70;6.70;;;;;;;;;;5085010;28;20847;-68
2022/12/03 01:13:01;;;;;;;14.47;6.97;;;;;;;;;;5089506;28;20439;-68
2022/12/03 01:15:28;;;;;;;11.93;6.33;;;;;;;;;;5084459;28;20934;-68
2022/12/03 01:17:55;;;;;;;13.50;6.47;;;;;;;;;;5089837;28;20455;-68
2022/12/03 01:20:22;;;;;;;11.93;7.33;;;;;;;;;;5086506;28;20818;-68
2022/12/03 01:22:51;;;;;;;12.23;5.90;;;;;;;;;;5079496;28;20454;-68
2022/12/03 01:25:18;;;;;;;11.07;6.97;;;;;;;;;;5081558;28;20453;-68
2022/12/03 01:27:45;;;;;;;11.53;7.33;;;;;;;;;;5089530;28;20446;-68
2022/12/03 01:30:13;;;;;;;13.13;6.13;;;;;;;;;;5090348;28;20473;-67
2022/12/03 01:32:39;;;;;;;11.03;6.53;;;;;;;;;;5089580;28;21095;-68
2022/12/03 01:35:06;;;;;;;15.30;7.33;;;;;;;;;;5079055;28;20541;-67
2022/12/03 01:37:34;;;;;;;14.90;7.00;;;;;;;;;;5093529;28;20815;-68
2022/12/03 01:40:02;;;;;;;11.40;6.80;;;;;;;;;;5092399;28;20545;-68
2022/12/03 01:42:30;;;;;;;9.63;5.63;;;;;;;;;;5092892;28;20454;-68
2022/12/03 01:44:58;;;;;;;8.43;5.20;;;;;;;;;;5079753;28;20444;-68
2022/12/03 01:47:28;;;;;;;8.63;5.10;;;;;;;;;;5093067;28;20463;-69
2022/12/03 01:49:57;;;;;;;6.10;4.50;;;;;;;;;;5078823;28;20469;-67
2022/12/03 01:52:25;;;;;;;11.97;6.70;;;;;;;;;;5092896;28;20454;-68
2022/12/03 01:54:54;;;;;;;18.00;6.23;;;;;;;;;;5079182;28;20560;-68
2022/12/03 01:57:24;;;;;;;18.43;7.70;;;;;;;;;;5093267;28;20451;-68
2022/12/03 01:59:51;;;;;;;9.67;6.00;;;;;;;;;;5080098;28;20453;-68
2022/12/03 02:02:20;;;;;;;10.10;5.23;;;;;;;;;;5092772;28;20453;-68
2022/12/03 02:04:48;;;;;;;7.50;5.07;;;;;;;;;;5093110;28;20499;-68
2022/12/03 02:07:19;;;;;;;8.00;5.83;;;;;;;;;;5093531;28;20450;-68
2022/12/03 02:09:46;;;;;;;10.57;5.10;;;;;;;;;;5080009;28;20484;-68
2022/12/03 02:12:15;;;;;;;11.87;6.67;;;;;;;;;;5091502;28;20449;-68
2022/12/03 02:14:44;;;;;;;10.93;5.93;;;;;;;;;;5097676;28;20446;-69
2022/12/03 02:17:11;;;;;;;12.60;6.70;;;;;;;;;;5098105;28;20463;-69
2022/12/03 02:19:39;;;;;;;12.23;5.77;;;;;;;;;;5097316;28;20506;-68
2022/12/03 02:22:08;;;;;;;12.00;6.50;;;;;;;;;;5084435;28;20457;-68
2022/12/03 02:24:39;;;;;;;12.50;6.87;;;;;;;;;;5099858;28;20445;-69
2022/12/03 02:27:07;;;;;;;15.47;6.57;;;;;;;;;;5098892;28;20465;-69
2022/12/03 02:29:34;;;;;;;8.60;5.77;;;;;;;;;;5098712;28;20471;-69
2022/12/03 02:32:01;;;;;;;14.50;8.40;;;;;;;;;;5096398;28;20458;-68
2022/12/03 02:34:36;;;;;;;10.40;5.50;;;;;;;;;;5091868;28;20447;-68
2022/12/03 02:37:04;;;;;;;12.70;6.37;;;;;;;;;;5087629;28;20913;-68
2022/12/03 02:39:31;;;;;;;8.07;5.47;;;;;;;;;;5084836;28;20462;-68
2022/12/03 02:44:44;;;;;;;9.83;4.73;;;;;;;;;;5092110;28;20481;-67
2022/12/03 02:47:11;;;;;;;10.23;5.20;;;;;;;;;;5084987;28;20450;-69
2022/12/03 02:49:38;;;;;;;10.40;6.60;;;;;;;;;;5092677;28;20498;-68
2022/12/03 02:52:06;;;;;;;11.67;6.80;;;;;;;;;;5080330;28;20439;-68
2022/12/03 02:54:33;;;;;;;18.83;5.40;;;;;;;;;;5089594;28;20451;-68
2022/12/03 02:57:00;;;;;;;7.33;3.53;;;;;;;;;;5091826;28;20447;-68
2022/12/03 02:59:27;;;;;;;7.53;5.10;;;;;;;;;;5091899;28;20460;-68
2022/12/03 03:01:56;;;;;;;10.50;6.00;;;;;;;;;;5091022;28;20446;-68
2022/12/03 03:04:24;;;;;;;11.37;5.73;;;;;;;;;;5086609;28;20453;-69
2022/12/03 03:06:51;;;;;;;7.97;5.13;;;;;;;;;;5083408;28;20511;-68
2022/12/03 03:09:19;;;;;;;9.33;5.27;;;;;;;;;;5089894;28;20481;-68
2022/12/03 03:11:46;;;;;;;10.23;5.30;;;;;;;;;;5084814;28;20497;-68
2022/12/03 03:14:13;;;;;;;7.20;4.07;;;;;;;;;;5085052;28;20448;-68
2022/12/03 03:16:40;;;;;;;6.70;4.33;;;;;;;;;;5088634;28;20504;-68
2022/12/03 03:19:09;;;;;;;10.27;5.30;;;;;;;;;;5077316;28;20861;-68
2022/12/03 03:21:36;;;;;;;8.60;5.30;;;;;;;;;;5091200;28;20447;-69
2022/12/03 03:24:03;;;;;;;7.73;5.10;;;;;;;;;;5090201;28;20773;-69
2022/12/03 03:26:30;;;;;;;11.70;6.67;;;;;;;;;;5091830;28;20451;-68
2022/12/03 03:28:59;;;;;;;8.33;4.47;;;;;;;;;;5090888;28;20443;-68
2022/12/03 03:31:26;;;;;;;13.03;5.87;;;;;;;;;;5091296;28;20449;-68
2022/12/03 03:33:53;;;;;;;9.60;5.93;;;;;;;;;;5090389;28;20474;-68
2022/12/03 03:36:22;;;;;;;9.77;5.53;;;;;;;;;;5082573;28;20453;-68
2022/12/03 03:38:50;;;;;;;9.33;5.90;;;;;;;;;;5071709;28;20448;-68
2022/12/03 03:41:18;;;;;;;9.47;5.80;;;;;;;;;;5085096;28;20534;-68
2022/12/03 03:43:46;;;;;;;12.40;5.90;;;;;;;;;;5082669;28;20964;-67
2022/12/03 03:46:14;;;;;;;14.10;6.77;;;;;;;;;;5084595;28;20450;-68
2022/12/03 03:48:42;;;;;;;14.40;6.10;;;;;;;;;;5078914;28;20553;-67
2022/12/03 03:51:10;;;;;;;10.37;6.40;;;;;;;;;;5076638;28;20517;-68
2022/12/03 03:53:40;;;;;;;10.37;5.83;;;;;;;;;;5089238;28;20448;-68
2022/12/03 03:56:08;;;;;;;14.00;6.33;;;;;;;;;;5087069;28;20455;-68
2022/12/03 03:58:35;;;;;;;9.33;5.17;;;;;;;;;;5090078;28;20448;-68
2022/12/03 04:01:02;;;;;;;11.67;7.20;;;;;;;;;;5076753;28;21283;-68
2022/12/03 04:03:30;;;;;;;8.27;5.87;;;;;;;;;;5086826;28;20933;-69
2022/12/03 04:05:57;;;;;;;12.40;5.83;;;;;;;;;;5090326;28;20454;-68
2022/12/03 04:08:24;;;;;;;10.50;5.73;;;;;;;;;;5085920;28;20507;-68
2022/12/03 04:13:37;;;;;;;11.63;5.73;;;;;;;;;;5084569;28;20433;-68
2022/12/03 04:16:04;;;;;;;9.93;5.47;;;;;;;;;;5084210;28;20809;-68
2022/12/03 04:18:44;;;;;;;12.80;7.93;;;;;;;;;;5090970;28;20458;-69
2022/12/03 04:23:56;;;;;;;7.60;5.40;;;;;;;;;;5088439;28;20448;-69
2022/12/03 04:29:09;;;;;;;6.90;4.20;;;;;;;;;;5073763;28;20428;-68
2022/12/03 04:37:07;;;;;;;11.20;4.80;;;;;;;;;;5079328;28;20940;-68
2022/12/03 04:39:34;;;;;;;8.50;5.20;;;;;;;;;;5083272;28;20512;-68
2022/12/03 04:42:02;;;;;;;14.60;7.57;;;;;;;;;;5084919;28;20454;-68
2022/12/03 04:44:34;;;;;;;13.60;6.30;;;;;;;;;;5089390;28;20946;-68
2022/12/03 04:47:02;;;;;;;9.30;5.43;;;;;;;;;;5077550;28;20487;-68
2022/12/03 04:49:29;;;;;;;9.70;5.27;;;;;;;;;;5082863;28;21010;-68
2022/12/03 04:51:56;;;;;;;10.00;6.20;;;;;;;;;;5088960;28;20459;-68
2022/12/03 04:54:23;;;;;;;17.10;7.20;;;;;;;;;;5087798;28;20977;-68
2022/12/03 04:56:51;;;;;;;10.40;5.97;;;;;;;;;;5074628;28;20455;-68
2022/12/03 04:59:19;;;;;;;8.83;5.30;;;;;;;;;;5083585;28;20805;-68
2022/12/03 05:01:46;;;;;;;11.73;6.17;;;;;;;;;;5089395;28;20452;-67
2022/12/03 05:04:14;;;;;;;8.23;5.73;;;;;;;;;;5086023;28;20487;-68
2022/12/03 05:06:41;;;;;;;12.03;5.80;;;;;;;;;;5071966;28;20455;-69
2022/12/03 05:09:09;;;;;;;11.50;5.40;;;;;;;;;;5081085;28;20945;-68
2022/12/03 05:11:36;;;;;;;9.87;6.87;;;;;;;;;;5090547;28;20490;-67
2022/12/03 05:14:03;;;;;;;10.27;7.33;;;;;;;;;;5092974;28;21112;-68
2022/12/03 05:16:32;;;;;;;9.97;5.27;;;;;;;;;;5090249;28;20446;-70
2022/12/03 05:18:59;;;;;;;16.50;8.20;;;;;;;;;;5093042;28;20453;-68
2022/12/03 05:21:26;;;;;;;11.17;6.10;;;;;;;;;;5080958;28;21350;-68
2022/12/03 05:23:53;;;;;;;6.87;5.20;;;;;;;;;;5091599;28;20460;-68
2022/12/03 05:26:20;;;;;;;10.13;5.87;;;;;;;;;;5094024;28;20447;-68
2022/12/03 05:28:47;;;;;;;13.60;7.00;;;;;;;;;;5093105;28;20448;-67
2022/12/03 05:31:14;;;;;;;9.80;5.90;;;;;;;;;;5092589;28;20479;-68
2022/12/03 05:33:43;;;;;;;11.10;5.80;;;;;;;;;;5093701;28;20452;-68
2022/12/03 05:36:10;;;;;;;9.40;5.07;;;;;;;;;;5080535;28;20456;-68
2022/12/03 05:38:37;;;;;;;7.47;4.90;;;;;;;;;;5093422;28;20453;-68
2022/12/03 05:42:52;;;;;;;12.80;7.17;;;;;;;;;;5091483;28;20457;-69
2022/12/03 05:43:51;;;;;;;12.30;5.33;;;;;;;;;;5084970;28;20444;-68
2022/12/03 05:46:18;;;;;;;13.70;5.63;;;;;;;;;;5089921;28;20958;-68
2022/12/03 05:48:47;;;;;;;7.40;5.50;;;;;;;;;;5085432;28;20476;-67
2022/12/03 05:51:14;;;;;;;10.57;5.87;;;;;;;;;;5092948;28;20881;-69
2022/12/03 05:53:41;;;;;;;10.13;7.10;;;;;;;;;;5082892;28;20947;-68
2022/12/03 05:56:09;;;;;;;10.63;6.47;;;;;;;;;;5092859;28;20809;-68
2022/12/03 05:58:36;;;;;;;9.90;7.33;;;;;;;;;;5093352;28;20440;-68
2022/12/03 06:01:03;;;;;;;14.30;7.17;;;;;;;;;;5092147;28;21380;-68
2022/12/03 06:03:30;;;;;;;11.37;5.07;;;;;;;;;;5093700;28;20452;-68
2022/12/03 06:05:58;;;;;;;9.60;6.20;;;;;;;;;;5089820;28;20460;-68
2022/12/03 06:08:25;;;;;;;9.27;5.40;;;;;;;;;;5093499;28;20456;-68
2022/12/03 06:10:52;;;;;;;12.00;5.73;;;;;;;;;;5084447;28;20489;-68
2022/12/03 06:13:19;;;;;;;10.30;5.93;;;;;;;;;;5087400;28;20812;-68
2022/12/03 06:15:47;;;;;;;8.57;5.10;;;;;;;;;;5084324;28;20441;-68
2022/12/03 06:18:14;;;;;;;12.37;6.40;;;;;;;;;;5093351;28;20474;-68
2022/12/03 06:20:41;;;;;;;9.37;4.70;;;;;;;;;;5086734;28;20463;-68
2022/12/03 06:23:10;;;;;;;11.20;6.97;;;;;;;;;;5085563;28;20928;-68
2022/12/03 06:25:37;;;;;;;10.03;5.57;;;;;;;;;;5088212;28;20459;-68
2022/12/03 06:28:04;;;;;;;11.30;6.33;;;;;;;;;;5081557;28;20476;-67
2022/12/03 06:30:33;;;;;;;8.70;6.13;;;;;;;;;;5080428;28;20478;-68
2022/12/03 06:33:00;;;;;;;10.23;5.00;;;;;;;;;;5091239;28;20526;-68
2022/12/03 06:35:27;;;;;;;10.40;6.60;;;;;;;;;;5086676;28;20469;-68
2022/12/03 06:37:54;;;;;;;11.00;5.50;;;;;;;;;;5090725;28;20448;-68
2022/12/03 06:40:23;;;;;;;11.73;6.43;;;;;;;;;;5085080;28;20461;-68
2022/12/03 06:42:51;;;;;;;9.60;5.67;;;;;;;;;;5082320;28;20459;-68
2022/12/03 06:45:18;;;;;;;12.43;6.70;;;;;;;;;;5084818;28;20465;-68
2022/12/03 06:47:45;;;;;;;13.40;6.10;;;;;;;;;;5091778;28;20477;-67
2022/12/03 06:50:12;;;;;;;9.87;5.10;;;;;;;;;;5092357;28;20452;-68
2022/12/03 06:52:39;;;;;;;9.63;5.80;;;;;;;;;;5080391;28;20550;-68
2022/12/03 06:55:07;;;;;;;9.40;5.43;;;;;;;;;;5087853;28;20456;-68
2022/12/03 06:57:35;;;;;;;18.40;5.83;;;;;;;;;;5080952;28;20939;-68
2022/12/03 07:00:03;;;;;;;8.20;6.00;;;;;;;;;;5085671;28;20459;-69
2022/12/03 07:02:30;;;;;;;11.57;5.80;;;;;;;;;;5090623;28;20442;-70
2022/12/03 07:04:57;;;;;;;10.00;5.40;;;;;;;;;;5081533;28;20815;-68
2022/12/03 07:07:24;;;;;;;13.10;5.27;;;;;;;;;;5080239;28;20535;-68
2022/12/03 07:09:51;;;;;;;9.83;5.77;;;;;;;;;;5088747;28;20451;-68
2022/12/03 07:12:18;;;;;;;10.87;6.43;;;;;;;;;;5076488;28;20993;-67
2022/12/03 07:14:47;;;;;;;11.30;6.23;;;;;;;;;;5087190;28;20458;-68
2022/12/03 07:17:14;;;;;;;13.03;8.80;;;;;;;;;;5092558;28;20461;-68
2022/12/03 07:19:41;;;;;;;12.40;5.90;;;;;;;;;;5081564;28;20471;-68
2022/12/03 07:22:08;;;;;;;11.40;6.57;;;;;;;;;;5074941;28;20483;-68
2022/12/03 07:24:35;;;;;;;11.13;5.10;;;;;;;;;;5092056;28;20968;-68
2022/12/03 07:27:02;;;;;;;8.83;5.17;;;;;;;;;;5086744;28;20461;-69
2022/12/03 07:29:30;;;;;;;11.07;5.20;;;;;;;;;;5084180;28;20457;-69
2022/12/03 07:31:58;;;;;;;15.47;8.43;;;;;;;;;;5085245;28;20483;-69
2022/12/03 07:34:25;;;;;;;10.13;6.20;;;;;;;;;;5083608;28;20459;-70
2022/12/03 07:36:52;;;;;;;13.63;6.67;;;;;;;;;;5071896;28;20461;-68
2022/12/03 07:39:19;;;;;;;9.57;5.13;;;;;;;;;;5084184;28;20759;-69
2022/12/03 07:41:47;;;;;;;11.50;7.17;;;;;;;;;;5090411;28;20463;-67
2022/12/03 07:44:14;;;;;;;16.50;6.90;;;;;;;;;;5091800;28;20459;-68
2022/12/03 07:46:41;;;;;;;12.53;7.00;;;;;;;;;;5072046;28;20932;-69
2022/12/03 07:49:10;;;;;;;9.37;6.03;;;;;;;;;;5079537;28;20476;-69
2022/12/03 07:51:38;;;;;;;9.00;6.43;;;;;;;;;;5086771;28;20852;-68
2022/12/03 07:54:05;;;;;;;11.33;7.90;;;;;;;;;;5090316;28;20811;-74
2022/12/03 07:56:32;;;;;;;19.37;6.33;;;;;;;;;;5078785;28;20592;-70
2022/12/03 07:58:59;;;;;;;12.67;5.70;;;;;;;;;;5090667;28;20541;-70
2022/12/03 08:01:26;;;;;;;9.30;5.43;;;;;;;;;;5089040;28;20476;-71
2022/12/03 08:03:54;;;;;;;13.23;7.90;;;;;;;;;;5089034;28;20810;-70
2022/12/03 08:06:22;;;;;;;12.03;7.53;;;;;;;;;;5081783;28;20457;-70
2022/12/03 08:08:49;;;;;;;15.20;6.10;;;;;;;;;;5085865;28;20971;-72
2022/12/03 08:11:16;;;;;;;8.53;5.87;;;;;;;;;;5085448;28;20481;-70
2022/12/03 08:13:43;;;;;;;11.37;7.80;;;;;;;;;;5091068;28;20450;-68
2022/12/03 08:16:16;;;;;;;14.67;7.27;;;;;;;;;;5090163;28;20906;-70
2022/12/03 08:18:44;;;;;;;11.93;7.43;;;;;;;;;;5088090;28;20454;-68
2022/12/03 08:21:11;;;;;;;13.40;7.83;;;;;;;;;;5100432;28;20452;-71
2022/12/03 08:23:40;;;;;;;10.57;6.37;;;;;;;;;;5094440;28;20444;-69
2022/12/03 08:26:13;;;;;;;11.03;7.40;;;;;;;;;;5092419;28;20458;-72
2022/12/03 08:28:40;;;;;;;13.10;6.50;;;;;;;;;;5090067;28;20459;-70
2022/12/03 08:31:17;;;;;;;19.40;8.20;;;;;;;;;;5084744;28;20489;-67
2022/12/03 08:33:44;;;;;;;10.23;6.10;;;;;;;;;;5082324;28;20443;-67
2022/12/03 08:36:13;;;;;;;11.33;6.07;;;;;;;;;;5070144;28;20783;-67
2022/12/03 08:38:41;;;;;;;17.03;7.37;;;;;;;;;;5080317;28;20453;-70
2022/12/03 08:41:12;;;;;;;13.37;6.57;;;;;;;;;;5084879;28;20537;-71
2022/12/03 08:43:41;;;;;;;12.20;6.87;;;;;;;;;;5082129;28;20928;-70
2022/12/03 08:46:12;;;;;;;13.43;8.07;;;;;;;;;;5083573;28;20457;-70
2022/12/03 08:48:39;;;;;;;21.13;8.97;;;;;;;;;;5084442;28;20476;-71
2022/12/03 08:51:11;;;;;;;13.87;7.00;;;;;;;;;;5085368;28;20563;-69
2022/12/03 08:53:39;;;;;;;13.80;6.87;;;;;;;;;;5075987;28;20457;-70
2022/12/03 08:56:14;;;;;;;15.03;9.07;;;;;;;;;;5080428;28;20737;-69
2022/12/03 08:58:42;;;;;;;11.40;6.23;;;;;;;;;;5082968;28;20444;-71
2022/12/03 09:01:18;;;;;;;13.80;6.03;;;;;;;;;;5089959;28;20448;-70
2022/12/03 09:03:48;;;;;;;13.63;6.13;;;;;;;;;;5090035;28;20468;-70
2022/12/03 09:06:15;;;;;;;10.17;6.63;;;;;;;;;;5082780;28;20452;-70
2022/12/03 09:08:42;;;;;;;13.70;7.60;;;;;;;;;;5083245;28;20465;-70
2022/12/03 09:11:10;;;;;;;10.60;6.63;;;;;;;;;;5076452;28;20478;-71
2022/12/03 09:13:37;;;;;;;12.63;5.60;;;;;;;;;;5075896;28;20458;-70
2022/12/03 09:16:05;;;;;;;21.27;7.33;;;;;;;;;;5082650;28;20450;-71
2022/12/03 09:18:32;;;;;;;14.17;5.87;;;;;;;;;;5082774;28;20463;-71
2022/12/03 09:20:59;;;;;;;15.30;6.93;;;;;;;;;;5085714;28;20508;-71
2022/12/03 09:23:26;;;;;;;14.43;9.47;;;;;;;;;;5087342;28;20953;-71
2022/12/03 09:25:53;;;;;;;11.80;6.90;;;;;;;;;;5087277;28;20440;-70
2022/12/03 09:28:22;;;;;;;12.93;7.40;;;;;;;;;;5087921;28;20936;-70
2022/12/03 09:30:49;;;;;;;15.47;6.00;;;;;;;;;;5079182;28;20443;-71
2022/12/03 09:33:16;;;;;;;25.33;8.90;;;;;;;;;;5089937;28;20945;-71
2022/12/03 09:35:43;;;;;;;14.97;8.13;;;;;;;;;;5089947;28;20450;-68
2022/12/03 09:38:10;;;;;;;14.20;8.00;;;;;;;;;;5090067;28;20780;-71
2022/12/03 09:40:38;;;;;;;14.33;7.77;;;;;;;;;;5081881;28;20513;-70
2022/12/03 09:43:05;;;;;;;8.53;6.30;;;;;;;;;;5072512;28;20850;-71
2022/12/03 09:45:34;;;;;;;12.20;5.57;;;;;;;;;;5089907;28;20450;-71
2022/12/03 09:48:02;;;;;;;11.47;6.47;;;;;;;;;;5089343;28;20485;-71
2022/12/03 09:50:31;;;;;;;13.70;7.30;;;;;;;;;;5090224;28;20458;-71
2022/12/03 09:53:00;;;;;;;13.50;7.77;;;;;;;;;;5089199;28;20492;-71
2022/12/03 09:55:28;;;;;;;13.93;6.43;;;;;;;;;;5079091;28;20530;-70
2022/12/03 09:57:56;;;;;;;15.60;8.20;;;;;;;;;;5077418;28;20960;-71
2022/12/03 10:00:24;;;;;;;9.80;6.50;;;;;;;;;;5093555;28;20448;-71
2022/12/03 10:02:53;;;;;;;15.57;7.23;;;;;;;;;;5093385;28;20456;-71
2022/12/03 10:05:22;;;;;;;15.37;7.73;;;;;;;;;;5093865;28;20456;-71
2022/12/03 10:07:49;;;;;;;14.20;6.53;;;;;;;;;;5079144;28;20454;-71
2022/12/03 10:10:17;;;;;;;13.60;6.00;;;;;;;;;;5079450;28;20458;-70
2022/12/03 10:12:44;;;;;;;16.63;7.63;;;;;;;;;;5088212;28;20581;-72
2022/12/03 10:15:13;;;;;;;9.80;5.83;;;;;;;;;;5091081;28;20479;-70
2022/12/03 10:17:40;;;;;;;13.80;6.77;;;;;;;;;;5085754;28;20612;-71
2022/12/03 10:20:11;;;;;;;10.63;6.03;;;;;;;;;;5076255;28;20475;-71
2022/12/03 10:22:38;;;;;;;9.80;5.77;;;;;;;;;;5087079;28;20456;-71
2022/12/03 10:25:07;;;;;;;9.40;4.63;;;;;;;;;;5089760;28;20456;-71
2022/12/03 10:27:34;;;;;;;11.47;5.23;;;;;;;;;;5090235;28;20488;-70
2022/12/03 10:30:02;;;;;;;12.10;7.20;;;;;;;;;;5088312;28;20445;-68
2022/12/03 10:32:39;;;;;;;12.47;7.23;;;;;;;;;;5090655;28;20895;-68
2022/12/03 10:35:08;;;;;;;10.00;5.23;;;;;;;;;;5082620;28;20492;-69
2022/12/03 10:37:36;;;;;;;11.60;6.50;;;;;;;;;;5084182;28;20458;-70
2022/12/03 10:40:07;;;;;;;16.00;7.33;;;;;;;;;;5082362;28;20493;-70
2022/12/03 10:42:36;;;;;;;11.40;6.03;;;;;;;;;;5090459;28;20523;-70
2022/12/03 10:45:24;;;;;;;12.03;6.20;;;;;;;;;;5076747;28;20444;-70
2022/12/03 10:48:06;;;;;;;13.73;7.30;;;;;;;;;;5084285;28;20578;-70
2022/12/03 10:50:33;;;;;;;9.43;5.00;;;;;;;;;;5087512;28;20452;-70
2022/12/03 10:53:02;;;;;;;12.53;7.43;;;;;;;;;;5088989;28;20982;-70
2022/12/03 10:55:29;;;;;;;13.30;6.07;;;;;;;;;;5084893;28;20900;-70
2022/12/03 10:57:56;;;;;;;10.43;5.83;;;;;;;;;;5075564;28;20452;-70
2022/12/03 11:00:24;;;;;;;19.93;10.27;;;;;;;;;;5089546;28;20464;-70
2022/12/03 11:02:51;;;;;;;15.00;7.80;;;;;;;;;;5087992;28;20893;-68
2022/12/03 11:05:20;;;;;;;10.20;5.30;;;;;;;;;;5085808;28;20954;-70
2022/12/03 11:07:47;;;;;;;12.63;8.00;;;;;;;;;;5088509;28;20799;-69
2022/12/03 11:10:18;;;;;;;17.20;8.70;;;;;;;;;;5082548;28;20448;-70
2022/12/03 11:13:19;;;;;;;10.50;7.50;;;;;;;;;;5075640;28;20552;-71
2022/12/03 11:15:48;;;;;;;13.63;5.50;;;;;;;;;;5086981;28;20467;-70
2022/12/03 11:18:46;;;;;;;13.40;6.07;;;;;;;;;;5087306;28;20465;-70
2022/12/03 11:21:14;;;;;;;13.13;5.73;;;;;;;;;;5079794;28;21057;-70
2022/12/03 11:24:00;;;;;;;11.80;6.03;;;;;;;;;;5083238;28;20486;-70
2022/12/03 11:26:46;;;;;;;10.73;5.50;;;;;;;;;;5082844;28;20453;-71
2022/12/03 11:29:14;;;;;;;10.17;7.03;;;;;;;;;;5083530;28;20474;-70
2022/12/03 11:31:44;;;;;;;10.50;6.60;;;;;;;;;;5072583;28;20497;-70
2022/12/03 11:34:30;;;;;;;9.77;5.10;;;;;;;;;;5078111;28;20454;-71
2022/12/03 11:37:21;;;;;;;13.23;6.07;;;;;;;;;;5085979;28;20445;-71
2022/12/03 11:40:02;;;;;;;12.90;6.50;;;;;;;;;;5073446;28;20832;-69
2022/12/03 11:42:30;;;;;;;10.47;6.53;;;;;;;;;;5089034;28;20458;-70
2022/12/03 11:45:15;;;;;;;9.20;5.00;;;;;;;;;;5088559;28;20448;-70
2022/12/03 11:47:45;;;;;;;11.40;5.80;;;;;;;;;;5083739;28;20490;-70
2022/12/03 11:50:20;;;;;;;11.50;7.20;;;;;;;;;;5089415;28;20439;-70
2022/12/03 11:52:48;;;;;;;12.00;4.07;;;;;;;;;;5088393;28;20480;-68
2022/12/03 11:55:17;;;;;;;13.77;5.00;;;;;;;;;;5088939;28;20461;-69
2022/12/03 11:57:44;;;;;;;14.83;5.80;;;;;;;;;;5084398;28;20456;-69
2022/12/03 12:00:17;;;;;;;16.20;6.30;;;;;;;;;;5080002;28;20446;-71
2022/12/03 12:02:46;;;;;;;15.77;5.70;;;;;;;;;;5088084;28;20454;-69
2022/12/03 12:05:24;;;;;;;14.40;6.30;;;;;;;;;;5077324;28;20444;-69
2022/12/03 12:07:52;;;;;;;12.97;6.60;;;;;;;;;;5074909;28;20450;-69
2022/12/03 12:10:37;;;;;;;9.57;5.10;;;;;;;;;;5076913;28;20941;-69
2022/12/03 12:13:05;;;;;;;12.03;6.90;;;;;;;;;;5087941;28;20996;-71
2022/12/03 12:15:44;;;;;;;9.67;4.20;;;;;;;;;;5080101;28;20467;-71
2022/12/03 12:18:29;;;;;;;13.80;5.50;;;;;;;;;;5087437;28;20977;-73
2022/12/03 12:21:17;;;;;;;13.13;5.90;;;;;;;;;;5082440;28;20442;-72
2022/12/03 12:23:44;;;;;;;9.20;5.20;;;;;;;;;;5083915;28;20802;-70
2022/12/03 12:26:12;;;;;;;8.33;5.53;;;;;;;;;;5079822;28;20536;-73
2022/12/03 12:28:39;;;;;;;9.70;5.90;;;;;;;;;;5088848;28;20447;-73
2022/12/03 12:31:10;;;;;;;15.83;6.80;;;;;;;;;;5076826;28;20458;-75
2022/12/03 12:33:37;;;;;;;12.73;4.77;;;;;;;;;;5082765;28;20494;-75
2022/12/03 12:36:08;;;;;;;6.30;4.63;;;;;;;;;;5081830;28;20937;-77
2022/12/03 12:38:36;;;;;;;14.60;5.77;;;;;;;;;;5080642;28;20451;-78
2022/12/03 12:41:05;;;;;;;13.27;6.73;;;;;;;;;;5088592;28;20446;-75
2022/12/03 12:43:33;;;;;;;11.73;4.73;;;;;;;;;;5071236;28;20456;-78
2022/12/03 12:46:01;;;;;;;10.03;5.17;;;;;;;;;;5083394;28;20451;-82
2022/12/03 12:48:29;;;;;;;14.00;6.03;;;;;;;;;;5079888;28;21039;-79
2022/12/03 12:51:01;;;;;;;10.40;6.03;;;;;;;;;;5082840;28;20979;-79
2022/12/03 12:53:31;;;;;;;9.93;5.00;;;;;;;;;;5089202;28;20473;-79
2022/12/03 12:55:59;;;;;;;12.80;5.73;;;;;;;;;;5087059;28;20799;-79
2022/12/03 12:58:26;;;;;;;11.70;5.47;;;;;;;;;;5073029;28;20448;-78
2022/12/03 13:00:55;;;;;;;11.63;6.07;;;;;;;;;;5089606;28;20446;-79
2022/12/03 13:03:23;;;;;;;7.77;4.97;;;;;;;;;;5090259;28;20957;-80
2022/12/03 13:05:52;;;;;;;10.00;5.43;;;;;;;;;;5089431;28;20457;-81
2022/12/03 13:08:24;;;;;;;11.07;6.07;;;;;;;;;;5084103;28;20522;-80
2022/12/03 13:10:53;;;;;;;11.60;5.20;;;;;;;;;;5089758;28;20447;-80
2022/12/03 13:13:30;;;;;;;10.00;5.70;;;;;;;;;;5089437;28;20826;-81
2022/12/03 13:15:59;;;;;;;7.87;5.10;;;;;;;;;;5076096;28;20490;-81
2022/12/03 13:18:28;;;;;;;15.20;5.47;;;;;;;;;;5089924;28;20500;-80
2022/12/03 13:20:55;;;;;;;13.33;5.20;;;;;;;;;;5089459;28;20801;-81
2022/12/03 13:23:27;;;;;;;10.37;5.30;;;;;;;;;;5084728;28;20454;-82
2022/12/03 13:25:55;;;;;;;11.77;5.30;;;;;;;;;;5082595;28;20977;-80
2022/12/03 13:28:22;;;;;;;8.27;5.20;;;;;;;;;;5090063;28;20449;-84
2022/12/03 13:30:50;;;;;;;9.50;6.03;;;;;;;;;;5090285;28;20449;-80
2022/12/03 13:33:24;;;;;;;10.67;5.43;;;;;;;;;;5091378;28;20477;-81
2022/12/03 13:35:52;;;;;;;14.97;5.33;;;;;;;;;;5082104;28;20885;-73
2022/12/03 13:38:20;;;;;;;19.67;7.13;;;;;;;;;;5091424;28;20460;-73
2022/12/03 13:40:51;;;;;;;19.97;7.37;;;;;;;;;;5092916;28;20579;-72
2022/12/03 13:43:19;;;;;;;11.70;5.30;;;;;;;;;;5092541;28;20464;-72
2022/12/03 13:45:47;;;;;;;11.70;5.30;;;;;;;;;;5080364;28;20457;-69
2022/12/03 13:48:19;;;;;;;9.50;4.60;;;;;;;;;;5080332;28;21018;-77
2022/12/03 13:50:46;;;;;;;8.57;5.27;;;;;;;;;;5092484;28;20459;-80
2022/12/03 13:53:17;;;;;;;10.13;5.30;;;;;;;;;;5093994;28;21009;-77
2022/12/03 13:55:45;;;;;;;8.80;4.63;;;;;;;;;;5079480;28;20451;-77
2022/12/03 13:58:12;;;;;;;10.60;6.47;;;;;;;;;;5090273;28;20452;-79
2022/12/03 14:00:41;;;;;;;15.53;7.00;;;;;;;;;;5093683;28;20441;-80
2022/12/03 14:03:08;;;;;;;14.07;6.33;;;;;;;;;;5092669;28;20461;-78
2022/12/03 14:05:35;;;;;;;8.07;4.03;;;;;;;;;;5093068;28;20451;-81
2022/12/03 14:08:03;;;;;;;9.40;4.87;;;;;;;;;;5087429;28;20958;-81
2022/12/03 14:10:30;;;;;;;8.17;5.83;;;;;;;;;;5088033;28;20810;-80
2022/12/03 14:12:58;;;;;;;11.20;6.10;;;;;;;;;;5092451;28;20518;-79
2022/12/03 14:15:25;;;;;;;13.97;6.30;;;;;;;;;;5093326;28;20447;-79
2022/12/03 14:17:54;;;;;;;13.40;4.97;;;;;;;;;;5082762;28;20798;-75
2022/12/03 14:20:21;;;;;;;9.60;4.83;;;;;;;;;;5089762;28;20459;-79
2022/12/03 14:22:48;;;;;;;8.67;4.93;;;;;;;;;;5090789;28;20454;-73
2022/12/03 14:25:15;;;;;;;13.40;4.40;;;;;;;;;;5091125;28;20795;-74
2022/12/03 14:27:42;;;;;;;11.77;4.73;;;;;;;;;;5086588;28;20451;-76
2022/12/03 14:30:10;;;;;;;12.03;5.20;;;;;;;;;;5089511;28;20451;-76
2022/12/03 14:32:37;;;;;;;19.63;6.60;;;;;;;;;;5082056;28;20484;-73
2022/12/03 14:35:06;;;;;;;10.90;6.20;;;;;;;;;;5089444;28;20481;-76
2022/12/03 14:37:33;;;;;;;11.40;4.93;;;;;;;;;;5092770;28;20466;-76
2022/12/03 14:40:00;;;;;;;11.23;5.27;;;;;;;;;;5092840;28;20447;-76
2022/12/03 14:42:27;;;;;;;12.90;5.30;;;;;;;;;;5080902;28;20470;-76
2022/12/03 14:44:54;;;;;;;15.03;6.60;;;;;;;;;;5083619;28;20966;-73
2022/12/03 14:47:22;;;;;;;11.70;6.00;;;;;;;;;;5092865;28;20559;-77
2022/12/03 14:49:49;;;;;;;13.00;4.13;;;;;;;;;;5092848;28;20446;-78
2022/12/03 14:52:18;;;;;;;18.20;6.83;;;;;;;;;;5080348;28;20450;-76
2022/12/03 14:54:46;;;;;;;7.60;4.67;;;;;;;;;;5085198;28;20458;-77
2022/12/03 14:57:14;;;;;;;10.83;5.30;;;;;;;;;;5085868;28;20478;-76
2022/12/03 14:59:41;;;;;;;13.97;4.43;;;;;;;;;;5092279;28;20938;-78